Amherst, Texas
Current Conditions -  °F | °C
As of 3:15 PM on Monday 22 Dec 2014 (Local Time) from KPVW Reporting Station
Overcast Overcast  
Wind Chill: 10°   Ceiling: 6500
Heat Index: 10°   Visibility: 10mi
Dew Point: -2°   Wind: 7mph
Humidity: 43%   Direction: 20°NNE
Pressure: 29.68"   Gusts: NA
Location:  34.01°N, 102.42°W
Report Text: KPVW 222115Z AUTO 02006KT 10SM OVC065 10/M02 A2968 RMK AO2 T01001022 TSNO
Loading
Personal Weather Stations






























Interactive Weather Map New forecast layout! Learn more

10-Day Weather Forecast

Advertisements
Track Severe Weather on mobile